createdAt,value
2023-05-17T00:04:42.849Z,5.03
2023-05-17T00:09:46.514Z,4.60
2023-05-17T00:14:50.172Z,5.10
2023-05-17T00:19:55.221Z,5.10
2023-05-17T00:24:58.919Z,5.80
2023-05-17T00:30:02.405Z,5.20
2023-05-17T00:35:09.929Z,5.35
2023-05-17T00:40:15.164Z,5.90
2023-05-17T00:45:18.780Z,5.53
2023-05-17T00:50:24.166Z,5.68
2023-05-17T00:55:28.475Z,5.47
2023-05-17T01:00:33.447Z,4.93
2023-05-17T01:10:51.901Z,5.83
2023-05-17T01:16:03.785Z,5.43
2023-05-17T01:21:18.456Z,5.68
2023-05-17T01:26:35.209Z,5.38
2023-05-17T01:31:40.270Z,5.10
2023-05-17T01:36:43.720Z,5.63
2023-05-17T01:41:56.690Z,5.28
2023-05-17T01:47:07.376Z,5.40
2023-05-17T01:52:17.148Z,5.90
2023-05-17T01:57:26.855Z,5.30
2023-05-17T02:02:30.685Z,5.50
2023-05-17T02:07:34.192Z,4.80
2023-05-17T02:12:39.211Z,5.40
2023-05-17T02:17:43.015Z,5.38
2023-05-17T02:22:46.724Z,5.33
2023-05-17T02:27:51.846Z,5.22
2023-05-17T02:32:57.125Z,5.32
2023-05-17T02:38:00.903Z,5.85
2023-05-17T02:43:05.821Z,5.90
2023-05-17T02:53:12.994Z,5.78
2023-05-17T02:58:18.124Z,5.43
2023-05-17T03:03:21.904Z,6.43
2023-05-17T03:08:27.002Z,5.40
2023-05-17T03:13:32.005Z,5.68
2023-05-17T03:18:36.092Z,5.72
2023-05-17T03:23:39.698Z,5.18
2023-05-17T03:28:44.637Z,5.88
2023-05-17T03:33:48.377Z,5.63
2023-05-17T03:38:51.970Z,6.03
2023-05-17T03:43:56.922Z,5.85
2023-05-17T03:49:00.605Z,6.43
2023-05-17T03:54:04.210Z,10.70
2023-05-17T03:59:09.322Z,11.97
2023-05-17T04:04:13.029Z,8.38
2023-05-17T04:09:16.741Z,5.60
2023-05-17T04:14:22.572Z,4.80
2023-05-17T04:19:26.196Z,4.22
2023-05-17T04:24:29.952Z,3.92
2023-05-17T04:29:35.004Z,4.10
2023-05-17T04:34:38.495Z,3.95
2023-05-17T04:44:47.014Z,3.00
2023-05-17T04:49:51.669Z,2.75
2023-05-17T04:54:55.304Z,2.30
2023-05-17T05:00:00.178Z,2.58
2023-05-17T05:05:05.081Z,2.58
2023-05-17T05:10:09.864Z,2.40
2023-05-17T05:15:15.347Z,2.20
2023-05-17T05:20:19.042Z,2.22
2023-05-17T05:25:22.784Z,2.45
2023-05-17T05:30:27.740Z,1.75
2023-05-17T05:35:31.563Z,2.30
2023-05-17T05:40:35.270Z,2.10
2023-05-17T05:45:45.917Z,1.73
2023-05-17T05:50:49.518Z,1.73
2023-05-17T05:55:53.139Z,1.90
2023-05-17T06:00:58.385Z,1.80
2023-05-17T06:06:02.078Z,2.00
2023-05-17T06:11:05.815Z,2.08
2023-05-17T06:16:10.785Z,1.70
2023-05-17T06:21:16.382Z,1.67
2023-05-17T06:26:19.959Z,1.40
2023-05-17T06:31:24.956Z,1.80
2023-05-17T06:36:28.528Z,1.60
2023-05-17T06:41:32.072Z,1.75
2023-05-17T06:46:37.226Z,1.80
2023-05-17T06:51:40.832Z,1.75
2023-05-17T06:56:44.565Z,2.03
2023-05-17T07:01:49.432Z,1.77
2023-05-17T07:06:52.922Z,1.60
2023-05-17T07:11:56.510Z,1.67
2023-05-17T07:17:01.697Z,1.80
2023-05-17T07:22:05.639Z,1.65
2023-05-17T07:27:09.270Z,1.63
2023-05-17T07:32:14.340Z,1.80
2023-05-17T07:37:17.844Z,1.85
2023-05-17T07:42:21.337Z,2.33
2023-05-17T07:47:26.290Z,2.35
2023-05-17T07:52:29.934Z,1.80
2023-05-17T07:57:33.643Z,1.80
2023-05-17T08:02:38.700Z,1.80
2023-05-17T08:07:42.321Z,1.60
2023-05-17T08:12:46.291Z,1.90
2023-05-17T08:17:51.620Z,2.03
2023-05-17T08:22:55.335Z,1.70
2023-05-17T08:27:58.920Z,2.08
2023-05-17T08:33:04.086Z,1.70
2023-05-17T08:38:08.645Z,1.65
2023-05-17T08:43:13.755Z,1.55
2023-05-17T08:48:23.102Z,1.60
2023-05-17T08:53:27.288Z,1.40
2023-05-17T08:58:51.714Z,1.40
2023-05-17T09:04:01.805Z,1.30
2023-05-17T09:09:08.080Z,1.52
2023-05-17T09:14:11.656Z,1.40
2023-05-17T09:19:18.641Z,1.55
2023-05-17T09:24:29.529Z,1.30
2023-05-17T09:29:33.999Z,1.88
2023-05-17T09:34:41.648Z,1.58
2023-05-17T09:39:47.054Z,1.55
2023-05-17T09:44:53.378Z,1.50
2023-05-17T09:50:00.915Z,1.33
2023-05-17T09:55:04.645Z,1.30
2023-05-17T10:00:12.233Z,1.50
2023-05-17T10:05:19.144Z,1.70
2023-05-17T10:10:23.486Z,1.75
2023-05-17T10:15:29.066Z,1.50
2023-05-17T10:20:34.650Z,1.45
2023-05-17T10:25:39.474Z,1.50
2023-05-17T10:30:43.961Z,1.50
2023-05-17T10:35:50.887Z,1.60
2023-05-17T10:40:55.309Z,1.63
2023-05-17T10:46:00.350Z,1.55
2023-05-17T10:51:09.988Z,1.50
2023-05-17T10:56:13.706Z,1.70
2023-05-17T11:06:50.964Z,1.40
2023-05-17T11:12:09.165Z,1.77
2023-05-17T11:17:16.503Z,1.60
2023-05-17T11:22:24.534Z,2.05
2023-05-17T11:27:29.039Z,1.80
2023-05-17T11:32:33.940Z,1.60
2023-05-17T11:37:38.853Z,1.52
2023-05-17T11:42:42.673Z,1.70
2023-05-17T11:47:49.856Z,1.60
2023-05-17T11:52:58.418Z,1.50
2023-05-17T11:58:04.362Z,1.40
2023-05-17T12:03:21.810Z,1.70
2023-05-17T12:08:26.838Z,1.70
2023-05-17T12:13:31.136Z,1.40
2023-05-17T12:18:38.810Z,1.45
2023-05-17T12:23:45.113Z,1.52
2023-05-17T12:28:57.636Z,1.77
2023-05-17T12:34:02.772Z,2.05
2023-05-17T12:39:10.105Z,1.67
2023-05-17T12:44:16.695Z,1.60
2023-05-17T12:49:22.547Z,1.60
2023-05-17T12:54:31.621Z,1.67
2023-05-17T12:59:36.638Z,1.42
2023-05-17T13:04:40.323Z,1.50
2023-05-17T13:14:54.942Z,1.40
2023-05-17T13:19:58.766Z,1.50
2023-05-17T13:25:04.472Z,1.50
2023-05-17T13:30:10.793Z,1.55
2023-05-17T13:35:14.415Z,1.90
2023-05-17T13:40:19.454Z,1.65
2023-05-17T13:45:23.458Z,1.40
2023-05-17T13:50:27.078Z,1.67
2023-05-17T13:55:32.165Z,1.38
2023-05-17T14:00:35.807Z,1.52
2023-05-17T14:05:39.523Z,2.13
2023-05-17T14:10:44.536Z,1.55
2023-05-17T14:15:48.096Z,1.60
2023-05-17T14:20:53.309Z,1.80
2023-05-17T14:25:58.777Z,1.60
2023-05-17T14:31:02.316Z,1.77
2023-05-17T14:36:06.336Z,1.60
2023-05-17T14:46:14.831Z,1.90
2023-05-17T14:56:22.914Z,1.50
2023-05-17T15:01:26.511Z,1.70
2023-05-17T15:06:30.697Z,1.65
2023-05-17T15:11:35.628Z,1.50
2023-05-17T15:16:39.498Z,1.90
2023-05-17T15:26:47.990Z,2.05
2023-05-17T15:31:51.827Z,1.65
2023-05-17T15:36:57.022Z,1.60
2023-05-17T15:42:02.375Z,1.58
2023-05-17T15:47:06.279Z,2.20
2023-05-17T15:52:10.319Z,1.75
2023-05-17T15:57:15.275Z,1.60
2023-05-17T16:02:19.768Z,1.83
2023-05-17T16:07:25.020Z,1.60
2023-05-17T16:12:30.009Z,2.05
2023-05-17T16:17:33.906Z,1.80
2023-05-17T16:22:37.797Z,2.00
2023-05-17T16:27:43.434Z,1.80
2023-05-17T16:32:48.171Z,2.10
2023-05-17T16:37:52.389Z,2.20
2023-05-17T16:53:03.919Z,1.98
2023-05-17T16:58:09.283Z,2.10
2023-05-17T17:03:13.052Z,2.20
2023-05-17T17:08:16.748Z,2.45
2023-05-17T17:13:21.962Z,2.20
2023-05-17T17:18:25.880Z,2.13
2023-05-17T17:23:29.559Z,2.42
2023-05-17T17:28:34.624Z,2.95
2023-05-17T17:33:38.334Z,2.40
2023-05-17T17:38:42.221Z,2.80
2023-05-17T17:43:49.487Z,2.90
2023-05-17T17:48:54.339Z,2.63
2023-05-17T17:53:59.950Z,3.00
2023-05-17T17:59:05.027Z,3.10
2023-05-17T18:04:09.715Z,3.45
2023-05-17T18:09:13.456Z,2.83
2023-05-17T18:14:18.457Z,3.07
2023-05-17T18:19:22.092Z,3.33
2023-05-17T18:24:25.697Z,3.22
2023-05-17T18:29:30.615Z,3.47
2023-05-17T18:34:34.172Z,3.38
2023-05-17T18:39:37.823Z,3.47
2023-05-17T18:44:42.787Z,3.60
2023-05-17T18:49:47.205Z,3.60
2023-05-17T18:54:50.758Z,3.92
2023-05-17T18:59:55.754Z,4.30
2023-05-17T19:04:59.276Z,4.00
2023-05-17T19:10:04.527Z,3.95
2023-05-17T19:15:10.832Z,4.50
2023-05-17T19:20:14.846Z,4.55
2023-05-17T19:25:20.312Z,4.78
2023-05-17T19:30:26.099Z,4.40
2023-05-17T19:35:29.658Z,4.45
2023-05-17T19:40:33.203Z,4.78
2023-05-17T19:45:38.171Z,4.88
2023-05-17T19:50:41.730Z,4.78
2023-05-17T19:55:45.474Z,4.53
2023-05-17T20:00:50.658Z,4.70
2023-05-17T20:05:55.090Z,4.55
2023-05-17T20:10:58.708Z,4.78
2023-05-17T20:16:03.610Z,5.68
2023-05-17T20:21:07.905Z,4.72
2023-05-17T20:26:16.602Z,4.72
2023-05-17T20:31:21.614Z,5.07
2023-05-17T20:36:25.972Z,4.57
2023-05-17T20:41:29.675Z,4.82
2023-05-17T20:46:35.603Z,5.28
2023-05-17T20:51:39.501Z,4.95
2023-05-17T20:56:43.030Z,4.83
2023-05-17T21:01:47.972Z,4.75
2023-05-17T21:06:52.403Z,4.60
2023-05-17T21:11:56.107Z,4.90
2023-05-17T21:17:02.437Z,5.43
2023-05-17T21:22:06.988Z,5.13
2023-05-17T21:27:10.553Z,4.60
2023-05-17T21:32:16.883Z,5.65
2023-05-17T21:37:20.732Z,4.90
2023-05-17T21:42:24.459Z,5.47
2023-05-17T21:47:29.593Z,5.15
2023-05-17T21:52:33.221Z,5.63
2023-05-17T21:57:37.269Z,5.00
2023-05-17T22:02:42.964Z,5.43
2023-05-17T22:07:46.619Z,5.22
2023-05-17T22:12:50.435Z,5.20
2023-05-17T22:17:55.709Z,5.00
2023-05-17T22:22:59.439Z,5.63
2023-05-17T22:28:02.949Z,5.15
2023-05-17T22:33:08.021Z,5.55
2023-05-17T22:38:11.702Z,6.03
2023-05-17T22:43:15.400Z,5.83
2023-05-17T22:48:21.206Z,6.10
2023-05-17T22:53:24.748Z,5.88
2023-05-17T22:58:28.330Z,5.90
2023-05-17T23:03:33.264Z,5.93
2023-05-17T23:08:36.793Z,5.68
2023-05-17T23:13:42.026Z,6.13
2023-05-17T23:18:47.605Z,5.53
2023-05-17T23:23:53.688Z,5.78
2023-05-17T23:28:57.228Z,6.72
2023-05-17T23:34:02.132Z,7.28
2023-05-17T23:39:06.556Z,6.63
2023-05-17T23:44:10.096Z,5.55
2023-05-17T23:49:15.033Z,5.90
2023-05-17T23:54:18.538Z,5.78
2023-05-17T23:59:24.498Z,6.40
